createdAt,value
2023-05-02T00:00:14.477Z,2.92
2023-05-02T00:02:44.445Z,2.00
2023-05-02T00:05:13.183Z,3.03
2023-05-02T00:07:41.849Z,3.00
2023-05-02T00:10:11.098Z,2.75
2023-05-02T00:12:39.727Z,2.95
2023-05-02T00:15:09.391Z,3.72
2023-05-02T00:17:38.406Z,3.35
2023-05-02T00:20:10.402Z,2.42
2023-05-02T00:22:39.305Z,3.47
2023-05-02T00:25:08.587Z,2.30
2023-05-02T00:27:37.042Z,2.58
2023-05-02T00:30:06.680Z,2.72
2023-05-02T00:32:35.503Z,2.42
2023-05-02T00:35:04.587Z,2.97
2023-05-02T00:37:34.382Z,2.58
2023-05-02T00:40:03.448Z,2.22
2023-05-02T00:42:36.353Z,2.00
2023-05-02T00:45:06.698Z,2.95
2023-05-02T00:47:36.248Z,2.35
2023-05-02T00:50:05.502Z,2.63
2023-05-02T00:52:35.497Z,2.67
2023-05-02T00:55:04.360Z,2.55
2023-05-02T00:57:34.232Z,2.88
2023-05-02T01:00:04.610Z,2.03
2023-05-02T01:02:39.363Z,2.38
2023-05-02T01:05:16.692Z,2.08
2023-05-02T01:08:15.106Z,3.13
2023-05-02T01:13:22.632Z,2.55
2023-05-02T01:15:54.448Z,2.95
2023-05-02T01:18:26.479Z,2.08
2023-05-02T01:21:00.115Z,2.47
2023-05-02T01:23:39.793Z,1.98
2023-05-02T01:26:17.957Z,1.75
2023-05-02T01:28:58.312Z,1.95
2023-05-02T01:31:28.164Z,1.92
2023-05-02T01:33:59.832Z,2.28
2023-05-02T01:36:31.631Z,2.88
2023-05-02T01:39:02.731Z,2.17
2023-05-02T01:41:33.770Z,2.53
2023-05-02T01:44:05.035Z,2.35
2023-05-02T01:46:38.163Z,2.47
2023-05-02T01:49:08.104Z,2.30
2023-05-02T01:51:39.475Z,1.95
2023-05-02T01:54:09.992Z,2.35
2023-05-02T01:56:40.395Z,2.25
2023-05-02T01:59:13.358Z,3.03
2023-05-02T02:01:44.821Z,2.47
2023-05-02T02:04:16.402Z,2.22
2023-05-02T02:06:49.479Z,2.67
2023-05-02T02:09:18.016Z,2.28
2023-05-02T02:11:53.296Z,2.85
2023-05-02T02:14:27.152Z,1.60
2023-05-02T02:19:26.279Z,2.53
2023-05-02T02:21:57.510Z,2.75
2023-05-02T02:24:27.617Z,2.65
2023-05-02T02:26:56.075Z,2.97
2023-05-02T02:29:25.979Z,2.53
2023-05-02T02:31:54.391Z,2.10
2023-05-02T02:34:23.132Z,2.63
2023-05-02T02:36:58.010Z,1.88
2023-05-02T02:39:39.652Z,2.65
2023-05-02T02:42:15.342Z,2.53
2023-05-02T02:44:54.484Z,1.75
2023-05-02T02:47:28.544Z,2.53
2023-05-02T02:52:49.298Z,1.83
2023-05-02T02:55:25.338Z,2.08
2023-05-02T02:58:00.133Z,2.08
2023-05-02T03:00:30.834Z,2.15
2023-05-02T03:03:01.942Z,1.75
2023-05-02T03:05:31.448Z,2.05
2023-05-02T03:08:00.957Z,2.53
2023-05-02T03:10:29.344Z,2.47
2023-05-02T03:12:57.808Z,1.88
2023-05-02T03:15:59.970Z,1.67
2023-05-02T03:18:31.410Z,1.83
2023-05-02T03:21:00.984Z,1.88
2023-05-02T03:23:29.451Z,1.67
2023-05-02T03:25:58.083Z,2.47
2023-05-02T03:28:27.762Z,2.03
2023-05-02T03:30:58.140Z,1.73
2023-05-02T03:33:29.521Z,2.33
2023-05-02T03:35:58.092Z,1.45
2023-05-02T03:38:27.116Z,1.73
2023-05-02T03:40:58.106Z,1.95
2023-05-02T03:43:27.442Z,1.92
2023-05-02T03:45:59.431Z,1.98
2023-05-02T03:48:28.732Z,2.70
2023-05-02T03:50:57.333Z,1.50
2023-05-02T03:53:26.180Z,1.92
2023-05-02T03:55:59.154Z,1.73
2023-05-02T03:58:38.997Z,1.48
2023-05-02T04:01:16.737Z,1.50
2023-05-02T04:03:48.537Z,1.65
2023-05-02T04:06:19.338Z,1.65
2023-05-02T04:08:53.616Z,2.25
2023-05-02T04:11:22.475Z,3.53
2023-05-02T04:13:53.691Z,1.95
2023-05-02T04:16:23.883Z,1.85
2023-05-02T04:18:52.473Z,1.33
2023-05-02T04:21:21.593Z,1.92
2023-05-02T04:23:50.108Z,1.73
2023-05-02T04:26:18.611Z,2.42
2023-05-02T04:29:00.122Z,1.88
2023-05-02T04:31:30.345Z,2.08
2023-05-02T04:33:59.280Z,2.00
2023-05-02T04:36:31.498Z,1.80
2023-05-02T04:38:59.872Z,1.92
2023-05-02T04:41:29.127Z,3.38
2023-05-02T04:44:02.336Z,1.63
2023-05-02T04:46:33.007Z,1.95
2023-05-02T04:49:01.550Z,3.53
2023-05-02T04:51:31.917Z,1.75
2023-05-02T04:54:00.667Z,1.65
2023-05-02T04:56:29.568Z,2.47
2023-05-02T04:58:58.052Z,3.35
2023-05-02T05:01:28.061Z,3.25
2023-05-02T05:03:58.772Z,6.18
2023-05-02T05:06:27.899Z,4.75
2023-05-02T05:08:57.153Z,6.63
2023-05-02T05:11:26.586Z,5.68
2023-05-02T05:13:55.283Z,4.80
2023-05-02T05:16:24.849Z,6.90
2023-05-02T05:18:53.911Z,7.07
2023-05-02T05:21:25.065Z,5.47
2023-05-02T05:23:54.162Z,3.50
2023-05-02T05:26:27.218Z,3.92
2023-05-02T05:28:56.481Z,3.78
2023-05-02T05:31:28.286Z,7.85
2023-05-02T05:34:01.245Z,7.97
2023-05-02T05:36:32.499Z,5.90
2023-05-02T05:39:01.344Z,4.63
2023-05-02T05:41:30.525Z,8.90
2023-05-02T05:44:04.800Z,6.20
2023-05-02T05:46:33.569Z,4.68
2023-05-02T05:49:03.197Z,4.10
2023-05-02T05:51:33.351Z,14.77
2023-05-02T05:54:02.530Z,5.93
2023-05-02T05:56:31.342Z,5.07
2023-05-02T05:59:07.541Z,5.97
2023-05-02T06:01:36.426Z,5.28
2023-05-02T06:04:06.544Z,3.35
2023-05-02T06:06:39.289Z,5.65
2023-05-02T06:09:07.992Z,5.43
2023-05-02T06:11:38.015Z,3.47
2023-05-02T06:14:06.614Z,5.55
2023-05-02T06:16:35.210Z,6.30
2023-05-02T06:19:03.833Z,7.03
2023-05-02T06:21:32.405Z,2.65
2023-05-02T06:24:02.173Z,2.58
2023-05-02T06:26:30.699Z,6.03
2023-05-02T06:28:59.190Z,2.83
2023-05-02T06:31:27.566Z,3.20
2023-05-02T06:33:55.966Z,6.22
2023-05-02T06:36:24.373Z,3.65
2023-05-02T06:38:52.782Z,4.25
2023-05-02T06:41:23.454Z,4.18
2023-05-02T06:43:51.878Z,3.72
2023-05-02T06:46:20.883Z,2.40
2023-05-02T06:48:49.413Z,4.32
2023-05-02T06:51:19.382Z,3.10
2023-05-02T06:53:47.751Z,4.72
2023-05-02T06:56:16.259Z,6.60
2023-05-02T06:58:46.111Z,5.10
2023-05-02T07:01:14.649Z,4.32
2023-05-02T07:03:43.243Z,4.68
2023-05-02T07:06:11.714Z,4.78
2023-05-02T07:08:40.210Z,3.03
2023-05-02T07:11:08.638Z,3.47
2023-05-02T07:13:37.031Z,5.93
2023-05-02T07:16:08.064Z,4.25
2023-05-02T07:18:36.763Z,3.65
2023-05-02T07:21:05.488Z,3.55
2023-05-02T07:23:33.897Z,5.10
2023-05-02T07:26:05.592Z,4.93
2023-05-02T07:28:34.758Z,4.50
2023-05-02T07:31:03.404Z,3.33
2023-05-02T07:33:33.159Z,3.83
2023-05-02T07:36:03.021Z,5.40
2023-05-02T07:38:31.809Z,5.22
2023-05-02T07:41:00.986Z,3.45
2023-05-02T07:43:29.400Z,3.20
2023-05-02T07:45:57.912Z,3.65
2023-05-02T07:48:27.800Z,4.00
2023-05-02T07:50:58.621Z,5.07
2023-05-02T07:53:27.196Z,3.20
2023-05-02T07:55:55.606Z,2.67
2023-05-02T07:58:24.140Z,3.97
2023-05-02T08:00:52.561Z,4.03
2023-05-02T08:03:21.311Z,3.25
2023-05-02T08:05:49.878Z,4.18
2023-05-02T08:08:19.712Z,2.90
2023-05-02T08:10:48.220Z,3.35
2023-05-02T08:13:16.631Z,3.05
2023-05-02T08:15:45.751Z,3.22
2023-05-02T08:18:14.301Z,3.92
2023-05-02T08:20:44.890Z,2.75
2023-05-02T08:23:13.381Z,3.45
2023-05-02T08:25:43.405Z,3.22
2023-05-02T08:28:11.850Z,4.13
2023-05-02T08:30:40.329Z,3.10
2023-05-02T08:33:08.876Z,4.53
2023-05-02T08:35:37.454Z,3.40
2023-05-02T08:38:06.378Z,3.80
2023-05-02T08:40:42.257Z,3.95
2023-05-02T08:43:14.119Z,3.65
2023-05-02T08:45:44.006Z,2.78
2023-05-02T08:48:16.874Z,3.53
2023-05-02T08:50:48.228Z,2.92
2023-05-02T08:53:18.220Z,3.38
2023-05-02T08:55:47.739Z,4.20
2023-05-02T08:58:17.831Z,3.58
2023-05-02T09:00:49.644Z,1.95
2023-05-02T09:03:25.015Z,2.08
2023-05-02T09:05:55.107Z,3.83
2023-05-02T09:08:24.950Z,2.85
2023-05-02T09:10:53.614Z,6.43
2023-05-02T09:13:35.220Z,2.70
2023-05-02T09:16:05.627Z,1.83
2023-05-02T09:18:36.148Z,2.42
2023-05-02T09:21:08.812Z,3.78
2023-05-02T09:23:39.870Z,2.58
2023-05-02T09:26:20.204Z,2.22
2023-05-02T09:28:51.580Z,3.30
2023-05-02T09:31:43.564Z,3.35
2023-05-02T09:34:11.766Z,2.75
2023-05-02T09:36:41.997Z,3.13
2023-05-02T09:39:13.317Z,2.67
2023-05-02T09:41:42.625Z,3.30
2023-05-02T09:44:13.684Z,2.00
2023-05-02T09:46:42.976Z,3.17
2023-05-02T09:49:11.529Z,3.80
2023-05-02T09:51:40.046Z,3.50
2023-05-02T09:54:08.814Z,3.50
2023-05-02T09:56:56.351Z,3.15
2023-05-02T09:59:26.373Z,2.30
2023-05-02T10:01:56.703Z,2.92
2023-05-02T10:04:25.928Z,2.60
2023-05-02T10:06:55.224Z,2.90
2023-05-02T10:09:24.164Z,2.20
2023-05-02T10:11:54.210Z,2.75
2023-05-02T10:14:24.651Z,3.13
2023-05-02T10:17:01.491Z,2.88
2023-05-02T10:19:32.887Z,2.67
2023-05-02T10:22:01.720Z,4.75
2023-05-02T10:24:33.132Z,4.18
2023-05-02T10:27:02.035Z,3.60
2023-05-02T10:29:30.848Z,4.15
2023-05-02T10:32:02.068Z,5.22
2023-05-02T10:34:33.802Z,5.13
2023-05-02T10:37:02.641Z,9.02
2023-05-02T10:39:32.898Z,5.25
2023-05-02T10:42:04.409Z,6.55
2023-05-02T10:44:36.438Z,5.57
2023-05-02T10:50:00.291Z,5.53
2023-05-02T10:52:31.640Z,4.35
2023-05-02T10:55:16.896Z,4.32
2023-05-02T10:58:18.752Z,7.20
2023-05-02T11:00:47.365Z,7.28
2023-05-02T11:03:15.987Z,5.97
2023-05-02T11:06:08.028Z,6.50
2023-05-02T11:08:36.995Z,6.00
2023-05-02T11:11:39.561Z,5.40
2023-05-02T11:14:09.537Z,7.30
2023-05-02T11:17:09.643Z,9.27
2023-05-02T11:20:29.000Z,6.75
2023-05-02T11:23:00.773Z,6.10
2023-05-02T11:25:37.363Z,5.28
2023-05-02T11:28:08.590Z,6.28
2023-05-02T11:30:45.127Z,6.70
2023-05-02T11:33:20.896Z,6.18
2023-05-02T11:35:49.925Z,5.70
2023-05-02T11:38:22.753Z,5.75
2023-05-02T11:40:59.463Z,5.85
2023-05-02T11:43:31.967Z,5.90
2023-05-02T11:46:02.536Z,5.88
2023-05-02T11:48:32.514Z,5.75
2023-05-02T11:51:05.251Z,5.13
2023-05-02T11:53:41.248Z,9.57
2023-05-02T11:56:10.059Z,6.95
2023-05-02T11:58:38.689Z,5.93
2023-05-02T12:01:14.419Z,6.00
2023-05-02T12:03:43.488Z,5.93
2023-05-02T12:06:14.150Z,6.10
2023-05-02T12:08:45.820Z,6.43
2023-05-02T12:11:15.472Z,6.90
2023-05-02T12:13:48.764Z,4.50
2023-05-02T12:16:18.187Z,5.25
2023-05-02T12:18:48.520Z,6.63
2023-05-02T12:21:18.182Z,6.95
2023-05-02T12:23:48.230Z,3.80
2023-05-02T12:26:21.322Z,4.45
2023-05-02T12:28:50.851Z,4.90
2023-05-02T12:31:19.898Z,4.60
2023-05-02T12:33:50.519Z,6.07
2023-05-02T12:36:19.471Z,6.43
2023-05-02T12:38:54.882Z,4.75
2023-05-02T12:41:34.091Z,7.20
2023-05-02T12:44:02.988Z,4.28
2023-05-02T12:46:32.380Z,6.40
2023-05-02T12:49:06.557Z,6.32
2023-05-02T12:51:35.204Z,5.20
2023-05-02T12:54:06.680Z,7.90
2023-05-02T12:56:40.515Z,6.38
2023-05-02T12:59:09.530Z,4.15
2023-05-02T13:01:38.586Z,5.88
2023-05-02T13:04:07.173Z,5.25
2023-05-02T13:06:37.947Z,3.95
2023-05-02T13:09:08.229Z,4.00
2023-05-02T13:11:36.791Z,4.18
2023-05-02T13:14:05.813Z,5.72
2023-05-02T13:16:36.619Z,4.38
2023-05-02T13:19:06.187Z,5.40
2023-05-02T13:21:34.708Z,4.80
2023-05-02T13:24:04.039Z,3.88
2023-05-02T13:26:33.961Z,3.90
2023-05-02T13:29:02.467Z,3.15
2023-05-02T13:31:31.100Z,3.60
2023-05-02T13:33:59.620Z,3.85
2023-05-02T13:41:29.888Z,3.88
2023-05-02T13:44:01.692Z,3.85
2023-05-02T13:46:36.113Z,5.75
2023-05-02T13:49:04.834Z,5.85
2023-05-02T13:51:34.001Z,4.50
2023-05-02T13:54:02.527Z,4.93
2023-05-02T13:56:31.128Z,3.47
2023-05-02T13:59:00.966Z,3.80
2023-05-02T14:01:29.718Z,2.75
2023-05-02T14:03:58.550Z,4.85
2023-05-02T14:06:27.319Z,2.22
2023-05-02T14:08:55.974Z,4.50
2023-05-02T14:11:24.372Z,9.30
2023-05-02T14:13:53.879Z,2.88
2023-05-02T14:16:23.853Z,3.67
2023-05-02T14:18:52.345Z,4.60
2023-05-02T14:21:20.800Z,4.57
2023-05-02T14:23:49.237Z,5.35
2023-05-02T14:26:17.600Z,5.88
2023-05-02T14:28:46.284Z,4.57
2023-05-02T14:31:15.159Z,4.63
2023-05-02T14:33:45.184Z,6.20
2023-05-02T14:36:13.603Z,4.20
2023-05-02T14:38:42.169Z,4.85
2023-05-02T14:41:11.236Z,4.07
2023-05-02T14:43:40.323Z,4.28
2023-05-02T14:46:08.730Z,4.35
2023-05-02T14:48:37.204Z,9.95
2023-05-02T14:51:07.641Z,11.27
2023-05-02T14:53:36.207Z,10.10
2023-05-02T14:56:05.147Z,8.75
2023-05-02T14:58:33.931Z,17.83
2023-05-02T15:01:02.505Z,7.50
2023-05-02T15:03:30.957Z,15.63
2023-05-02T15:05:59.566Z,6.30
2023-05-02T15:08:29.350Z,6.30
2023-05-02T15:10:58.597Z,8.07
2023-05-02T15:13:27.136Z,6.25
2023-05-02T15:15:55.805Z,6.28
2023-05-02T15:18:24.344Z,5.30
2023-05-02T15:20:52.730Z,6.22
2023-05-02T15:23:21.496Z,4.65
2023-05-02T15:25:51.250Z,7.30
2023-05-02T15:28:19.688Z,5.45
2023-05-02T15:30:49.076Z,5.65
2023-05-02T15:33:17.598Z,6.25
2023-05-02T15:35:58.070Z,5.78
2023-05-02T15:38:26.810Z,5.55
2023-05-02T15:40:57.407Z,8.48
2023-05-02T15:43:26.796Z,5.00
2023-05-02T15:45:56.336Z,4.65
2023-05-02T15:48:25.486Z,3.25
2023-05-02T15:50:54.416Z,6.30
2023-05-02T15:53:23.029Z,4.40
2023-05-02T15:55:52.143Z,4.93
2023-05-02T15:58:22.112Z,4.95
2023-05-02T16:00:51.850Z,4.10
2023-05-02T16:03:20.354Z,3.53
2023-05-02T16:05:48.801Z,4.18
2023-05-02T16:08:17.211Z,6.88
2023-05-02T16:10:45.670Z,12.43
2023-05-02T16:13:14.061Z,14.43
2023-05-02T16:15:43.970Z,13.80
2023-05-02T16:18:12.647Z,13.07
2023-05-02T16:20:42.123Z,12.65
2023-05-02T16:23:10.641Z,15.63
2023-05-02T16:25:39.073Z,13.98
2023-05-02T16:28:07.475Z,15.32
2023-05-02T16:30:36.896Z,13.15
2023-05-02T16:33:07.104Z,17.08
2023-05-02T16:35:35.647Z,13.93
2023-05-02T16:38:04.078Z,12.20
2023-05-02T16:40:32.442Z,11.82
2023-05-02T16:43:01.381Z,11.57
2023-05-02T16:45:29.979Z,10.68
2023-05-02T16:47:58.645Z,11.80
2023-05-02T16:50:28.429Z,13.07
2023-05-02T16:52:56.926Z,14.52
2023-05-02T16:55:25.474Z,13.25
2023-05-02T16:57:53.943Z,11.00
2023-05-02T17:00:22.680Z,10.52
2023-05-02T17:02:54.937Z,9.20
2023-05-02T17:05:23.506Z,10.45
2023-05-02T17:07:53.389Z,10.07
2023-05-02T17:10:21.911Z,8.55
2023-05-02T17:12:50.672Z,11.00
2023-05-02T17:15:19.193Z,10.70
2023-05-02T17:17:47.756Z,9.98
2023-05-02T17:20:17.401Z,10.40
2023-05-02T17:22:46.262Z,11.55
2023-05-02T17:25:16.179Z,7.15
2023-05-02T17:27:44.664Z,9.27
2023-05-02T17:30:14.899Z,8.40
2023-05-02T17:32:43.762Z,8.25
2023-05-02T17:35:12.425Z,6.82
2023-05-02T17:37:40.932Z,9.43
2023-05-02T17:40:12.186Z,6.65
2023-05-02T17:42:43.567Z,9.13
2023-05-02T17:45:12.544Z,6.88
2023-05-02T17:47:41.081Z,10.80
2023-05-02T17:50:10.310Z,8.23
2023-05-02T17:52:38.830Z,6.65
2023-05-02T17:55:08.758Z,9.32
2023-05-02T17:57:37.345Z,7.53
2023-05-02T18:00:08.768Z,8.85
2023-05-02T18:02:38.347Z,7.15
2023-05-02T18:05:07.976Z,9.15
2023-05-02T18:07:36.618Z,5.93
2023-05-02T18:10:06.668Z,9.27
2023-05-02T18:12:35.185Z,7.00
2023-05-02T18:15:05.110Z,7.13
2023-05-02T18:17:37.257Z,5.65
2023-05-02T18:20:07.080Z,7.03
2023-05-02T18:22:35.673Z,8.95
2023-05-02T18:25:04.602Z,7.90
2023-05-02T18:27:33.363Z,7.57
2023-05-02T18:30:01.911Z,8.10
2023-05-02T18:32:31.576Z,8.13
2023-05-02T18:35:01.962Z,9.13
2023-05-02T18:37:31.904Z,6.65
2023-05-02T18:40:00.710Z,8.65
2023-05-02T18:42:29.243Z,8.60
2023-05-02T18:44:57.679Z,6.43
2023-05-02T18:47:26.200Z,6.07
2023-05-02T18:49:56.320Z,9.77
2023-05-02T18:52:26.740Z,6.40
2023-05-02T18:54:55.367Z,8.70
2023-05-02T18:57:24.659Z,10.18
2023-05-02T18:59:53.347Z,6.85
2023-05-02T19:02:22.502Z,7.72
2023-05-02T19:04:51.037Z,6.40
2023-05-02T19:07:19.473Z,9.48
2023-05-02T19:09:49.298Z,5.85
2023-05-02T19:12:17.760Z,7.55
2023-05-02T19:14:47.875Z,6.82
2023-05-02T19:17:16.421Z,5.88
2023-05-02T19:19:46.640Z,8.13
2023-05-02T19:22:15.244Z,6.97
2023-05-02T19:24:43.803Z,6.28
2023-05-02T19:27:13.545Z,7.38
2023-05-02T19:29:42.358Z,6.15
2023-05-02T19:32:10.936Z,6.88
2023-05-02T19:34:39.464Z,6.57
2023-05-02T19:37:08.025Z,5.85
2023-05-02T19:39:36.480Z,7.18
2023-05-02T19:42:05.426Z,7.40
2023-05-02T19:44:35.265Z,5.72
2023-05-02T19:47:03.741Z,6.32
2023-05-02T19:49:32.224Z,6.18
2023-05-02T19:52:00.874Z,5.93
2023-05-02T19:54:29.355Z,5.72
2023-05-02T19:56:57.830Z,8.60
2023-05-02T19:59:27.421Z,4.80
2023-05-02T20:01:57.352Z,6.57
2023-05-02T20:04:27.697Z,4.38
2023-05-02T20:06:56.213Z,4.72
2023-05-02T20:09:25.376Z,5.47
2023-05-02T20:11:53.837Z,5.03
2023-05-02T20:14:22.418Z,5.18
2023-05-02T20:16:51.086Z,5.47
2023-05-02T20:19:22.070Z,6.88
2023-05-02T20:21:50.684Z,5.82
2023-05-02T20:24:19.056Z,5.32
2023-05-02T20:26:47.513Z,7.00
2023-05-02T20:29:16.490Z,4.43
2023-05-02T20:31:45.032Z,5.28
2023-05-02T20:34:13.512Z,6.68
2023-05-02T20:36:43.364Z,6.57
2023-05-02T20:39:12.291Z,6.10
2023-05-02T20:41:40.793Z,6.32
2023-05-02T20:44:09.282Z,5.05
2023-05-02T20:46:37.937Z,6.80
2023-05-02T20:49:07.243Z,5.15
2023-05-02T20:51:35.706Z,4.68
2023-05-02T20:54:05.645Z,5.20
2023-05-02T20:56:34.044Z,5.70
2023-05-02T20:59:02.496Z,4.72
2023-05-02T21:01:31.129Z,6.22
2023-05-02T21:03:59.710Z,3.92
2023-05-02T21:06:28.224Z,5.25
2023-05-02T21:08:56.794Z,4.38
2023-05-02T21:11:26.777Z,6.15
2023-05-02T21:13:55.157Z,4.63
2023-05-02T21:16:23.777Z,4.57
2023-05-02T21:18:53.747Z,4.40
2023-05-02T21:21:23.474Z,5.57
2023-05-02T21:23:51.964Z,4.82
2023-05-02T21:26:20.582Z,4.22
2023-05-02T21:28:50.418Z,4.95
2023-05-02T21:31:18.836Z,5.30
2023-05-02T21:33:47.298Z,4.57
2023-05-02T21:36:15.862Z,4.32
2023-05-02T21:38:44.426Z,4.00
2023-05-02T21:41:12.838Z,4.72
2023-05-02T21:43:41.527Z,4.18
2023-05-02T21:46:13.332Z,4.75
2023-05-02T21:48:42.006Z,5.43
2023-05-02T21:51:13.885Z,5.35
2023-05-02T21:53:42.732Z,4.35
2023-05-02T21:56:11.736Z,4.72
2023-05-02T21:58:40.287Z,5.25
2023-05-02T22:01:08.828Z,4.43
2023-05-02T22:03:39.101Z,5.28
2023-05-02T22:06:07.935Z,5.30
2023-05-02T22:08:36.545Z,5.65
2023-05-02T22:11:09.488Z,5.25
2023-05-02T22:13:38.328Z,4.20
2023-05-02T22:16:08.000Z,4.15
2023-05-02T22:18:38.604Z,5.07
2023-05-02T22:21:08.301Z,4.30
2023-05-02T22:23:36.856Z,3.60
2023-05-02T22:26:05.610Z,5.63
2023-05-02T22:28:34.136Z,4.50
2023-05-02T22:31:03.183Z,3.78
2023-05-02T22:33:31.782Z,4.40
2023-05-02T22:36:01.664Z,3.92
2023-05-02T22:38:30.190Z,3.50
2023-05-02T22:40:58.681Z,3.72
2023-05-02T22:43:27.195Z,3.88
2023-05-02T22:45:55.927Z,5.15
2023-05-02T22:48:24.526Z,4.80
2023-05-02T22:50:53.092Z,5.70
2023-05-02T22:53:23.557Z,4.25
2023-05-02T22:55:52.246Z,4.63
2023-05-02T22:58:20.720Z,4.15
2023-05-02T23:00:49.202Z,4.00
2023-05-02T23:03:17.782Z,4.25
2023-05-02T23:05:46.415Z,4.03
2023-05-02T23:08:15.030Z,3.83
2023-05-02T23:10:44.776Z,3.90
2023-05-02T23:13:13.625Z,3.55
2023-05-02T23:15:42.101Z,3.92
2023-05-02T23:18:10.645Z,3.97
2023-05-02T23:20:39.052Z,4.15
2023-05-02T23:23:07.514Z,3.78
2023-05-02T23:25:36.633Z,4.32
2023-05-02T23:28:06.575Z,4.05
2023-05-02T23:30:35.206Z,4.40
2023-05-02T23:33:03.796Z,4.57
2023-05-02T23:35:32.848Z,3.92
2023-05-02T23:38:02.078Z,4.18
2023-05-02T23:40:31.580Z,3.97
2023-05-02T23:43:00.367Z,3.30
2023-05-02T23:45:30.112Z,4.10
2023-05-02T23:47:58.537Z,3.78
2023-05-02T23:50:27.074Z,4.85
2023-05-02T23:52:55.450Z,3.65
2023-05-02T23:55:23.861Z,4.00
2023-05-02T23:57:52.226Z,3.60
